createdAt,value
2023-04-23T04:48:33.925Z,39.90
2023-04-23T04:53:37.140Z,33.13
2023-04-23T04:55:11.724Z,31.35
2023-04-23T04:56:22.498Z,30.67
2023-04-23T04:57:54.852Z,28.99
2023-04-23T04:59:07.635Z,29.33
2023-04-23T05:00:30.111Z,27.76
2023-04-23T05:01:33.739Z,27.94
2023-04-23T05:02:37.525Z,28.92
2023-04-23T05:03:40.405Z,29.24
2023-04-23T05:05:10.106Z,28.63
2023-04-23T05:06:12.010Z,29.46
2023-04-23T05:07:14.747Z,28.41
2023-04-23T05:08:17.512Z,26.77
2023-04-23T05:09:19.635Z,27.22
2023-04-23T05:10:28.075Z,27.42
2023-04-23T05:11:32.181Z,27.85
2023-04-23T05:12:36.028Z,28.14
2023-04-23T05:13:38.757Z,28.04
2023-04-23T05:14:43.075Z,28.53
2023-04-23T05:15:47.018Z,29.25
2023-04-23T05:18:20.623Z,30.33
2023-04-23T05:19:23.825Z,30.10
2023-04-23T05:20:27.263Z,29.93
2023-04-23T05:21:29.476Z,30.38
2023-04-23T05:22:31.792Z,31.00
2023-04-23T05:23:37.197Z,32.12
2023-04-23T05:24:51.184Z,31.74
2023-04-23T05:25:56.130Z,32.56
2023-04-23T05:27:05.274Z,34.13
2023-04-23T05:28:18.145Z,32.17
2023-04-23T05:29:22.631Z,31.94
2023-04-23T05:30:27.514Z,31.11
2023-04-23T05:31:46.792Z,31.30
2023-04-23T05:34:18.491Z,32.43
2023-04-23T05:35:20.705Z,32.00
2023-04-23T05:36:22.710Z,31.95
2023-04-23T05:37:27.952Z,32.28
2023-04-23T05:38:38.461Z,32.48
2023-04-23T05:39:51.007Z,33.15
2023-04-23T05:41:21.428Z,33.78
2023-04-23T05:42:32.359Z,34.55
2023-04-23T05:48:26.014Z,35.76
2023-04-23T05:49:29.155Z,36.10
2023-04-23T05:50:35.899Z,36.23
2023-04-23T05:51:41.908Z,35.44
2023-04-23T05:52:44.419Z,34.53
2023-04-23T05:53:53.678Z,34.48
2023-04-23T05:54:55.931Z,34.60
2023-04-23T05:55:57.951Z,35.05
2023-04-23T05:56:59.933Z,34.46
2023-04-23T05:58:02.604Z,34.35
2023-04-23T05:59:04.646Z,34.57
2023-04-23T06:00:09.872Z,34.76
2023-04-23T06:01:15.421Z,35.25
2023-04-23T06:02:17.319Z,34.68
2023-04-23T06:03:24.487Z,34.53
2023-04-23T06:04:27.319Z,34.56
2023-04-23T06:05:30.114Z,34.07
2023-04-23T06:06:32.276Z,34.55
2023-04-23T06:07:34.576Z,34.69
2023-04-23T06:08:36.344Z,34.49
2023-04-23T06:09:38.586Z,33.90
2023-04-23T06:10:40.623Z,33.61
2023-04-23T06:11:42.676Z,32.49
2023-04-23T06:12:44.614Z,32.41
2023-04-23T06:13:46.563Z,32.01
2023-04-23T06:14:48.901Z,31.38
2023-04-23T06:15:52.181Z,31.73
2023-04-23T06:16:54.127Z,32.76
2023-04-23T06:17:56.300Z,32.43
2023-04-23T06:18:58.184Z,32.27
2023-04-23T06:21:04.446Z,32.68
2023-04-23T06:22:06.561Z,33.00
2023-04-23T06:23:08.340Z,33.71
2023-04-23T06:24:10.238Z,33.08
2023-04-23T06:25:13.276Z,32.26
2023-04-23T06:26:15.326Z,32.00
2023-04-23T06:27:18.621Z,32.01
2023-04-23T06:28:25.046Z,32.63
2023-04-23T06:29:50.819Z,33.81
2023-04-23T06:30:53.998Z,33.78
2023-04-23T06:31:56.874Z,33.06
2023-04-23T06:32:58.705Z,32.64
2023-04-23T06:34:01.353Z,32.35
2023-04-23T06:35:04.993Z,31.31
2023-04-23T06:36:09.583Z,30.77
2023-04-23T06:37:11.695Z,31.00
2023-04-23T06:38:13.560Z,30.76
2023-04-23T06:39:15.629Z,29.96
2023-04-23T06:40:18.014Z,29.33
2023-04-23T06:41:21.671Z,28.81
2023-04-23T06:42:34.563Z,28.34
2023-04-23T06:43:59.409Z,27.77
2023-04-23T06:45:10.926Z,27.78
2023-04-23T06:46:12.880Z,27.34
2023-04-23T06:47:16.114Z,27.44
2023-04-23T06:48:18.658Z,27.10
2023-04-23T06:49:21.053Z,27.08
2023-04-23T06:50:24.342Z,26.90
2023-04-23T06:51:27.779Z,27.05
2023-04-23T06:52:29.750Z,27.05
2023-04-23T06:53:32.054Z,26.97
2023-04-23T06:54:34.044Z,27.13
2023-04-23T06:55:36.407Z,26.87
2023-04-23T06:56:38.391Z,26.75
2023-04-23T06:57:40.598Z,26.30
2023-04-23T06:58:42.596Z,26.17
2023-04-23T06:59:52.157Z,26.30
2023-04-23T07:01:01.413Z,26.47
2023-04-23T07:02:05.337Z,26.46
2023-04-23T07:03:07.613Z,26.60
2023-04-23T07:04:10.758Z,26.48
2023-04-23T07:05:13.372Z,26.47
2023-04-23T07:06:16.374Z,26.30
2023-04-23T07:07:18.714Z,26.09
2023-04-23T07:08:22.608Z,25.29
2023-04-23T07:09:24.981Z,25.18
2023-04-23T07:10:27.173Z,25.68
2023-04-23T07:11:37.665Z,26.09
2023-04-23T07:12:40.170Z,25.17
2023-04-23T07:13:42.535Z,25.54
2023-04-23T07:14:44.449Z,25.26
2023-04-23T07:15:46.824Z,24.78
2023-04-23T07:16:48.638Z,24.86
2023-04-23T07:17:50.555Z,24.62
2023-04-23T07:18:52.621Z,24.07
2023-04-23T07:19:54.767Z,25.12
2023-04-23T07:20:56.804Z,25.94
2023-04-23T07:21:58.677Z,25.91
2023-04-23T07:23:00.969Z,25.37
2023-04-23T07:24:08.969Z,24.38
2023-04-23T07:25:12.081Z,22.83
2023-04-23T07:26:14.189Z,22.00
2023-04-23T07:27:16.171Z,22.15
2023-04-23T07:28:18.000Z,21.95
2023-04-23T07:29:19.922Z,21.76
2023-04-23T07:30:24.083Z,22.17
2023-04-23T07:31:26.559Z,22.56
2023-04-23T07:32:28.599Z,22.18
2023-04-23T07:33:30.548Z,21.56
2023-04-23T07:34:32.333Z,21.91
2023-04-23T07:35:34.331Z,22.13
2023-04-23T07:36:36.830Z,23.09
2023-04-23T07:37:38.799Z,22.37
2023-04-23T07:38:41.043Z,22.21
2023-04-23T07:39:44.148Z,21.44
2023-04-23T07:40:47.764Z,22.00
2023-04-23T07:41:49.774Z,21.22
2023-04-23T07:42:52.179Z,21.20
2023-04-23T07:43:54.015Z,21.18
2023-04-23T07:44:55.864Z,21.78
2023-04-23T07:45:58.284Z,22.46
2023-04-23T07:47:00.801Z,22.98
2023-04-23T07:48:02.697Z,22.85
2023-04-23T07:49:04.617Z,22.99
2023-04-23T07:50:07.565Z,21.99
2023-04-23T07:51:09.763Z,21.95
2023-04-23T07:52:11.577Z,22.26
2023-04-23T07:53:13.918Z,21.88
2023-04-23T07:54:15.825Z,21.73
2023-04-23T07:55:18.019Z,21.69
2023-04-23T07:56:24.768Z,22.18
2023-04-23T07:57:26.903Z,21.74
2023-04-23T07:58:28.878Z,22.24
2023-04-23T07:59:30.770Z,22.30
2023-04-23T08:00:33.045Z,22.08
2023-04-23T08:01:34.952Z,22.29
2023-04-23T08:02:37.131Z,22.57
2023-04-23T08:03:39.214Z,23.08
2023-04-23T08:04:41.220Z,22.62
2023-04-23T08:05:45.613Z,22.79
2023-04-23T08:06:47.781Z,23.53
2023-04-23T08:10:06.918Z,23.77
2023-04-23T08:13:51.019Z,24.29
2023-04-23T08:15:11.390Z,24.16
2023-04-23T08:16:24.625Z,24.37
2023-04-23T08:18:24.561Z,24.52
2023-04-23T08:25:55.550Z,25.87
2023-04-23T08:26:57.674Z,26.42
2023-04-23T08:27:59.692Z,27.09
2023-04-23T08:29:01.817Z,27.38
2023-04-23T08:30:05.722Z,28.01
2023-04-23T08:31:19.031Z,28.29
2023-04-23T08:32:28.061Z,27.51
2023-04-23T08:33:29.947Z,27.61
2023-04-23T08:34:33.914Z,27.73
2023-04-23T08:35:37.183Z,28.16
2023-04-23T08:36:39.330Z,27.64
2023-04-23T08:37:41.453Z,27.39
2023-04-23T08:38:43.569Z,27.12
2023-04-23T08:39:45.884Z,26.63
2023-04-23T08:40:55.701Z,26.80
2023-04-23T08:42:03.765Z,26.56
2023-04-23T08:43:14.227Z,27.33
2023-04-23T08:44:22.698Z,26.31
2023-04-23T08:45:26.848Z,25.91
2023-04-23T08:46:32.836Z,25.87
2023-04-23T08:47:36.309Z,25.89
2023-04-23T08:48:40.487Z,25.19
2023-04-23T08:49:43.907Z,24.61
2023-04-23T08:50:48.271Z,24.59
2023-04-23T08:51:53.500Z,24.59
2023-04-23T08:52:56.912Z,24.83
2023-04-23T08:54:03.982Z,24.08
2023-04-23T08:55:10.854Z,24.33
2023-04-23T08:56:13.889Z,23.41
2023-04-23T08:57:17.793Z,23.21
2023-04-23T08:58:20.349Z,23.14
2023-04-23T08:59:23.206Z,23.30
2023-04-23T09:00:27.564Z,22.98
2023-04-23T09:01:30.998Z,22.69
2023-04-23T09:02:35.199Z,22.69
2023-04-23T09:03:38.231Z,23.00
2023-04-23T09:04:41.363Z,24.44
2023-04-23T09:05:44.427Z,23.32
2023-04-23T09:06:47.043Z,23.15
2023-04-23T09:07:48.937Z,23.00
2023-04-23T09:08:53.229Z,22.92
2023-04-23T09:09:55.114Z,23.61
2023-04-23T09:11:01.663Z,24.20
2023-04-23T09:12:05.776Z,24.44
2023-04-23T09:13:08.479Z,24.70
2023-04-23T09:14:11.206Z,25.06
2023-04-23T09:15:14.214Z,25.19
2023-04-23T09:16:18.686Z,25.86
2023-04-23T09:17:22.670Z,26.28
2023-04-23T09:18:25.135Z,26.67
2023-04-23T09:19:27.976Z,26.46
2023-04-23T09:20:30.122Z,25.70
2023-04-23T09:21:33.434Z,27.02
2023-04-23T09:22:53.804Z,25.68
2023-04-23T09:23:55.927Z,25.33
2023-04-23T09:25:04.371Z,25.64
2023-04-23T09:26:08.273Z,26.00
2023-04-23T09:27:10.567Z,25.70
2023-04-23T09:28:14.454Z,26.10
2023-04-23T09:29:19.762Z,25.21
2023-04-23T09:30:25.462Z,25.75
2023-04-23T09:31:28.135Z,26.35
2023-04-23T09:32:33.802Z,27.12
2023-04-23T09:33:39.125Z,26.77
2023-04-23T09:34:43.981Z,26.43
2023-04-23T09:35:48.854Z,25.69
2023-04-23T09:36:53.401Z,26.76
2023-04-23T09:37:55.710Z,25.76
2023-04-23T09:38:59.480Z,25.42
2023-04-23T09:40:04.448Z,26.75
2023-04-23T09:41:27.992Z,25.37
2023-04-23T09:42:30.846Z,25.89
2023-04-23T09:43:32.944Z,26.02
2023-04-23T09:44:35.363Z,26.10
2023-04-23T09:45:38.091Z,26.62
2023-04-23T09:46:46.003Z,25.97
2023-04-23T09:48:05.347Z,26.35
2023-04-23T09:49:12.293Z,27.10
2023-04-23T09:50:14.513Z,27.52
2023-04-23T09:51:25.484Z,26.75
2023-04-23T09:52:29.322Z,27.33
2023-04-23T09:53:43.448Z,27.31
2023-04-23T09:54:46.724Z,27.38
2023-04-23T09:55:49.104Z,27.92
2023-04-23T09:57:08.751Z,27.06
2023-04-23T09:58:18.254Z,26.90
2023-04-23T09:59:50.213Z,27.26
2023-04-23T10:01:09.920Z,27.90
2023-04-23T10:02:15.511Z,26.90
2023-04-23T10:03:27.615Z,27.44
2023-04-23T10:04:37.582Z,27.94
2023-04-23T10:05:59.584Z,27.60
2023-04-23T10:07:19.035Z,26.99
2023-04-23T10:08:22.390Z,27.17
2023-04-23T10:09:28.343Z,26.83
2023-04-23T10:10:51.044Z,26.88
2023-04-23T10:12:02.227Z,26.88
2023-04-23T10:13:07.576Z,26.52
2023-04-23T10:14:10.051Z,26.73
2023-04-23T10:15:14.002Z,26.44
2023-04-23T10:16:23.249Z,26.08
2023-04-23T10:17:28.172Z,26.19
2023-04-23T10:18:33.019Z,26.19
2023-04-23T10:19:41.575Z,26.10
2023-04-23T10:20:44.097Z,26.40
2023-04-23T10:21:57.798Z,26.61
2023-04-23T10:23:02.845Z,26.33
2023-04-23T10:24:09.868Z,26.48
2023-04-23T10:25:15.972Z,26.63
2023-04-23T10:26:22.696Z,27.31
2023-04-23T10:27:48.677Z,26.37
2023-04-23T10:28:55.365Z,27.01
2023-04-23T10:30:01.805Z,26.75
2023-04-23T10:31:09.864Z,27.86
2023-04-23T10:32:12.852Z,27.93
2023-04-23T10:33:26.569Z,28.12
2023-04-23T10:34:35.529Z,27.73
2023-04-23T10:36:07.881Z,27.86
2023-04-23T10:37:12.178Z,28.25
2023-04-23T10:38:16.946Z,27.74
2023-04-23T10:39:29.438Z,28.07
2023-04-23T10:40:34.162Z,28.19
2023-04-23T10:41:39.444Z,28.42
2023-04-23T10:42:43.712Z,27.80
2023-04-23T10:43:46.124Z,28.39
2023-04-23T10:44:59.161Z,28.15
2023-04-23T10:46:31.568Z,28.46
2023-04-23T10:47:33.580Z,28.11
2023-04-23T10:49:16.980Z,27.98
2023-04-23T10:50:22.565Z,28.05
2023-04-23T10:52:45.540Z,27.85
2023-04-23T10:53:47.819Z,27.98
2023-04-23T10:54:58.096Z,27.78
2023-04-23T10:56:10.312Z,27.61
2023-04-23T10:57:12.376Z,28.01
2023-04-23T10:58:14.697Z,28.09
2023-04-23T10:59:22.017Z,27.79
2023-04-23T11:00:24.881Z,27.26
2023-04-23T11:01:31.731Z,28.11
2023-04-23T11:02:46.560Z,27.40
2023-04-23T11:03:49.249Z,28.09
2023-04-23T11:04:59.088Z,27.72
2023-04-23T11:06:47.003Z,27.83
2023-04-23T11:08:18.848Z,27.58
2023-04-23T11:09:45.108Z,27.93
2023-04-23T11:10:57.966Z,27.78
2023-04-23T11:12:02.591Z,27.95
2023-04-23T11:13:28.200Z,27.86
2023-04-23T11:14:46.322Z,27.73
2023-04-23T11:15:49.549Z,27.85
2023-04-23T11:16:51.759Z,28.07
2023-04-23T11:17:53.945Z,28.14
2023-04-23T11:19:03.660Z,28.09
2023-04-23T11:20:14.374Z,28.18
2023-04-23T11:21:16.903Z,27.82
2023-04-23T11:22:21.746Z,27.66
2023-04-23T11:23:33.095Z,27.85
2023-04-23T11:24:43.248Z,27.81
2023-04-23T11:25:48.170Z,28.05
2023-04-23T11:26:57.300Z,27.88
2023-04-23T11:28:00.689Z,27.88
2023-04-23T11:29:04.777Z,28.42
2023-04-23T11:30:12.433Z,28.31
2023-04-23T11:31:20.956Z,28.12
2023-04-23T11:32:24.570Z,28.09
2023-04-23T11:33:28.484Z,28.22
2023-04-23T11:34:32.408Z,28.34
2023-04-23T11:35:40.819Z,27.99
2023-04-23T11:36:48.921Z,27.66
2023-04-23T11:37:51.230Z,27.97
2023-04-23T11:38:56.855Z,27.68
2023-04-23T11:41:24.817Z,27.83
2023-04-23T11:46:25.034Z,28.10
2023-04-23T11:47:27.721Z,28.18
2023-04-23T11:48:29.836Z,28.41
2023-04-23T11:49:32.042Z,28.05
2023-04-23T11:50:35.663Z,28.46
2023-04-23T11:51:46.961Z,28.04
2023-04-23T11:52:51.583Z,28.09
2023-04-23T11:53:53.746Z,28.07
2023-04-23T11:54:56.560Z,28.00
2023-04-23T11:56:05.574Z,27.97
2023-04-23T11:57:08.644Z,27.79
2023-04-23T11:58:11.587Z,28.68
2023-04-23T11:59:13.713Z,28.27
2023-04-23T12:00:27.048Z,29.21
2023-04-23T12:01:51.084Z,28.30
2023-04-23T12:02:55.621Z,28.10
2023-04-23T12:03:58.168Z,28.07
2023-04-23T12:05:06.794Z,27.78
2023-04-23T12:06:12.935Z,27.64
2023-04-23T12:07:25.783Z,27.81
2023-04-23T12:08:35.037Z,28.28
2023-04-23T12:09:40.950Z,27.75
2023-04-23T12:11:06.394Z,27.61
2023-04-23T12:14:11.033Z,28.70
2023-04-23T12:16:13.412Z,28.77
2023-04-23T12:17:21.537Z,27.75
2023-04-23T12:21:46.421Z,28.37
2023-04-23T12:22:50.106Z,28.25
2023-04-23T12:23:54.254Z,27.97
2023-04-23T12:24:59.397Z,27.87
2023-04-23T12:26:04.043Z,27.66
2023-04-23T12:27:22.971Z,28.37
2023-04-23T12:28:26.805Z,28.38
2023-04-23T12:29:33.684Z,28.07
2023-04-23T12:30:48.504Z,28.08
2023-04-23T12:33:35.949Z,28.25
2023-04-23T12:34:49.349Z,28.08
2023-04-23T12:36:26.940Z,27.40
2023-04-23T12:37:40.980Z,28.04
2023-04-23T12:38:43.174Z,28.29
2023-04-23T12:40:06.050Z,28.32
2023-04-23T12:41:14.446Z,28.07
2023-04-23T12:42:29.249Z,28.09
2023-04-23T12:43:39.362Z,27.74
2023-04-23T12:44:44.113Z,27.88
2023-04-23T12:45:47.914Z,28.51
2023-04-23T12:47:43.635Z,28.43
2023-04-23T12:50:32.364Z,28.26
2023-04-23T12:51:34.540Z,28.74
2023-04-23T12:52:47.510Z,28.81
2023-04-23T12:54:01.538Z,28.94
2023-04-23T12:55:05.308Z,28.92
2023-04-23T12:56:07.754Z,28.79
2023-04-23T12:57:14.469Z,28.82
2023-04-23T12:58:16.361Z,28.45
2023-04-23T12:59:23.941Z,29.00
2023-04-23T13:00:30.228Z,28.38
2023-04-23T13:01:33.303Z,28.78
2023-04-23T13:02:35.219Z,28.83
2023-04-23T13:03:37.200Z,28.88
2023-04-23T13:04:44.991Z,28.49
2023-04-23T13:05:52.389Z,28.74
2023-04-23T13:06:58.961Z,28.34
2023-04-23T13:08:03.934Z,28.38
2023-04-23T13:09:05.997Z,28.30
2023-04-23T13:10:09.280Z,28.54
2023-04-23T13:11:13.921Z,28.11
2023-04-23T13:12:18.972Z,27.96
2023-04-23T13:13:21.843Z,28.26
2023-04-23T13:14:27.210Z,28.09
2023-04-23T13:15:33.722Z,28.21
2023-04-23T13:16:38.113Z,27.89
2023-04-23T13:17:40.145Z,28.91
2023-04-23T13:18:42.269Z,28.72
2023-04-23T13:19:45.000Z,28.26
2023-04-23T13:20:47.074Z,28.43
2023-04-23T13:21:49.027Z,28.78
2023-04-23T13:22:59.689Z,28.26
2023-04-23T13:24:02.014Z,28.03
2023-04-23T13:25:04.467Z,28.42
2023-04-23T13:26:09.735Z,28.30
2023-04-23T13:27:14.897Z,28.18
2023-04-23T13:28:19.302Z,28.60
2023-04-23T13:29:21.262Z,28.27
2023-04-23T13:30:23.517Z,28.42
2023-04-23T13:31:55.515Z,28.19
2023-04-23T13:33:14.530Z,28.28
2023-04-23T13:34:51.385Z,27.97
2023-04-23T13:35:56.718Z,28.27
2023-04-23T13:37:06.470Z,28.10
2023-04-23T13:38:12.662Z,28.18
2023-04-23T13:39:17.248Z,28.50
2023-04-23T13:40:19.332Z,28.32
2023-04-23T13:41:27.537Z,28.57
2023-04-23T13:42:29.478Z,28.48
2023-04-23T13:52:14.408Z,28.48
2023-04-23T13:53:36.096Z,28.86
2023-04-23T13:55:09.808Z,28.85
2023-04-23T13:56:39.070Z,28.85
2023-04-23T13:57:42.808Z,28.84
2023-04-23T13:58:48.442Z,28.73
2023-04-23T14:00:03.324Z,28.46
2023-04-23T14:01:08.030Z,28.98
2023-04-23T14:02:10.565Z,28.91
2023-04-23T14:03:12.629Z,28.72
2023-04-23T14:04:15.138Z,28.82
2023-04-23T14:05:17.076Z,28.66
2023-04-23T14:06:20.693Z,29.18
2023-04-23T14:07:24.899Z,28.98
2023-04-23T14:08:26.731Z,28.91
2023-04-23T14:09:30.027Z,29.06
2023-04-23T14:10:33.782Z,29.13
2023-04-23T14:11:36.383Z,29.42
2023-04-23T14:12:42.448Z,29.39
2023-04-23T14:13:44.685Z,29.80
2023-04-23T14:14:46.697Z,29.57
2023-04-23T14:15:51.747Z,29.86
2023-04-23T14:16:54.500Z,29.99
2023-04-23T14:17:56.570Z,29.50
2023-04-23T14:18:58.705Z,29.28
2023-04-23T14:20:00.804Z,29.15
2023-04-23T14:21:02.873Z,29.40
2023-04-23T14:22:08.698Z,29.79
2023-04-23T14:23:17.146Z,29.40
2023-04-23T14:24:44.967Z,30.31
2023-04-23T14:26:49.272Z,30.68
2023-04-23T14:28:03.310Z,29.33
2023-04-23T14:33:03.699Z,29.53
2023-04-23T14:34:12.203Z,29.34
2023-04-23T14:35:17.327Z,29.24
2023-04-23T14:36:25.852Z,29.13
2023-04-23T14:41:07.751Z,29.43
2023-04-23T14:42:35.391Z,29.78
2023-04-23T14:43:41.076Z,29.65
2023-04-23T14:44:44.932Z,29.53
2023-04-23T14:45:50.426Z,29.66
2023-04-23T14:46:56.387Z,30.19
2023-04-23T14:49:22.068Z,30.21
2023-04-23T14:50:23.992Z,29.92
2023-04-23T14:51:27.956Z,29.92
2023-04-23T14:53:55.909Z,30.29
2023-04-23T14:55:00.610Z,30.02
2023-04-23T14:56:06.213Z,29.90
2023-04-23T15:00:56.635Z,30.22
2023-04-23T15:02:05.754Z,30.81
2023-04-23T15:03:11.276Z,30.54
2023-04-23T15:04:42.811Z,31.17
2023-04-23T15:05:46.237Z,30.54
2023-04-23T15:06:49.777Z,30.68
2023-04-23T15:07:53.922Z,29.87
2023-04-23T15:08:57.283Z,30.66
2023-04-23T15:10:06.650Z,30.87
2023-04-23T15:11:13.542Z,30.25
2023-04-23T15:13:12.594Z,30.47
2023-04-23T15:14:25.096Z,30.21
2023-04-23T15:15:43.902Z,30.19
2023-04-23T15:16:49.718Z,30.26
2023-04-23T15:17:52.681Z,30.09
2023-04-23T15:18:59.079Z,30.21
2023-04-23T15:20:01.201Z,30.01
2023-04-23T15:21:06.395Z,30.99
2023-04-23T15:22:12.712Z,30.70
2023-04-23T15:23:14.785Z,30.87
2023-04-23T15:24:17.205Z,30.37
2023-04-23T15:25:22.678Z,30.36
2023-04-23T15:26:54.071Z,30.23
2023-04-23T15:27:59.186Z,30.02
2023-04-23T15:29:01.956Z,30.25
2023-04-23T15:30:04.869Z,30.22
2023-04-23T15:31:08.323Z,30.10
2023-04-23T15:32:12.122Z,31.89
2023-04-23T15:33:17.853Z,30.55
2023-04-23T15:34:19.789Z,31.06
2023-04-23T15:35:22.990Z,31.05
2023-04-23T15:36:24.806Z,30.97
2023-04-23T15:37:29.239Z,31.24
2023-04-23T15:38:33.900Z,31.38
2023-04-23T15:39:35.986Z,31.94
2023-04-23T15:40:42.777Z,31.23
2023-04-23T15:41:46.298Z,30.82
2023-04-23T15:42:51.572Z,30.92
2023-04-23T15:43:55.009Z,30.90
2023-04-23T15:44:59.363Z,31.16
2023-04-23T15:46:01.627Z,31.68
2023-04-23T15:47:03.816Z,31.05
2023-04-23T15:48:05.893Z,31.36
2023-04-23T15:49:09.724Z,31.46
2023-04-23T15:50:13.155Z,31.49
2023-04-23T15:51:15.387Z,31.46
2023-04-23T15:52:18.012Z,31.35
2023-04-23T15:53:23.235Z,31.29
2023-04-23T15:54:27.042Z,31.09
2023-04-23T15:55:29.529Z,31.01
2023-04-23T15:56:33.526Z,31.96
2023-04-23T15:57:36.565Z,31.82
2023-04-23T15:58:38.764Z,31.64
2023-04-23T15:59:41.161Z,31.45
2023-04-23T16:00:43.209Z,31.82
2023-04-23T16:01:48.581Z,32.10
2023-04-23T16:03:18.730Z,32.13
2023-04-23T16:04:21.065Z,32.31
2023-04-23T16:05:24.099Z,32.10
2023-04-23T16:06:27.038Z,31.99
2023-04-23T16:07:29.345Z,31.54
2023-04-23T16:08:32.443Z,31.57
2023-04-23T16:09:34.654Z,31.64
2023-04-23T16:10:38.633Z,31.73
2023-04-23T16:11:42.206Z,31.92
2023-04-23T16:12:46.143Z,31.87
2023-04-23T16:14:13.287Z,31.98
2023-04-23T16:15:22.722Z,32.23
2023-04-23T16:24:48.531Z,32.12
2023-04-23T16:40:36.819Z,32.74
2023-04-23T16:44:48.053Z,33.09
2023-04-23T16:45:51.563Z,33.07
2023-04-23T16:46:54.371Z,32.86
2023-04-23T16:48:07.092Z,33.07
2023-04-23T16:49:12.408Z,33.56
2023-04-23T16:50:14.592Z,33.41
2023-04-23T16:51:18.617Z,33.34
2023-04-23T17:16:07.729Z,35.11
2023-04-23T17:17:38.319Z,35.75
2023-04-23T17:18:40.436Z,35.68
2023-04-23T17:19:48.240Z,35.63
2023-04-23T17:20:50.488Z,35.63
2023-04-23T17:22:15.841Z,35.84
2023-04-23T17:23:22.195Z,35.58
2023-04-23T17:30:18.152Z,36.42
2023-04-23T17:31:24.915Z,36.48
2023-04-23T17:44:46.723Z,37.33
2023-04-23T17:46:54.620Z,37.08
2023-04-23T17:49:38.222Z,37.63
2023-04-23T17:54:29.370Z,39.11
2023-04-23T17:55:34.345Z,39.05
2023-04-23T17:56:36.689Z,39.12
2023-04-23T17:57:39.339Z,39.43
2023-04-23T17:58:43.320Z,39.41
2023-04-23T17:59:45.964Z,39.19
2023-04-23T18:00:48.307Z,39.42
2023-04-23T18:01:50.806Z,39.05
2023-04-23T18:02:54.306Z,38.91
2023-04-23T18:04:02.660Z,39.29
2023-04-23T18:05:05.021Z,39.24
2023-04-23T18:06:08.828Z,38.59
2023-04-23T18:07:12.517Z,38.74
2023-04-23T18:08:19.565Z,38.81
2023-04-23T18:09:35.933Z,38.55
2023-04-23T18:11:01.419Z,38.32
2023-04-23T18:12:07.490Z,38.98
2023-04-23T18:13:11.759Z,38.75
2023-04-23T18:14:21.628Z,40.67
2023-04-23T18:15:25.920Z,40.06
2023-04-23T18:16:30.993Z,40.31
2023-04-23T18:18:00.256Z,40.84
2023-04-23T18:19:05.068Z,41.10
2023-04-23T18:20:11.836Z,40.09
2023-04-23T18:21:19.350Z,40.73
2023-04-23T18:22:23.403Z,40.78
2023-04-23T18:23:29.369Z,40.45
2023-04-23T18:24:37.786Z,40.76
2023-04-23T18:25:42.290Z,42.04
2023-04-23T18:26:55.232Z,42.01
2023-04-23T18:27:57.494Z,41.16
2023-04-23T18:29:02.117Z,41.53
2023-04-23T18:30:11.542Z,41.48
